Time;durP1;ratioP1;P1;durP2;ratioP2;P2;SDS_P1;SDS_P2;PMS_P1;PMS_P2;Temp;Humidity;BMP_temperature;BMP_pressure;BME280_temperature;BME280_humidity;BME280_pressure;Samples;Min_cycle;Max_cycle;Signal;HPM_P1;HPM_P2
2023/12/24 00:02:23;;;;;;;15.73;4.83;;;9.30;99.90;;;;;;5071595;28;20040;-80
2023/12/24 00:04:51;;;;;;;17.37;5.80;;;9.30;99.90;;;;;;5063538;28;20818;-79
2023/12/24 00:07:17;;;;;;;17.27;5.70;;;9.30;99.90;;;;;;5066243;28;20071;-79
2023/12/24 00:09:43;;;;;;;15.57;5.23;;;9.30;99.90;;;;;;5066701;28;20040;-79
2023/12/24 00:12:09;;;;;;;13.10;5.27;;;9.20;99.90;;;;;;5068226;28;20112;-78
2023/12/24 00:14:37;;;;;;;15.97;5.70;;;9.20;99.90;;;;;;5059985;28;20060;-77
2023/12/24 00:17:03;;;;;;;15.80;5.70;;;9.30;99.90;;;;;;5063307;28;20110;-79
2023/12/24 00:19:29;;;;;;;11.83;5.47;;;9.30;99.90;;;;;;5049680;28;20063;-78
2023/12/24 00:21:54;;;;;;;14.77;5.77;;;9.30;99.90;;;;;;5047629;28;20049;-77
2023/12/24 00:24:20;;;;;;;18.07;5.43;;;9.20;99.90;;;;;;5069282;28;20059;-78
2023/12/24 00:26:46;;;;;;;16.23;5.23;;;9.20;99.90;;;;;;5058190;28;20064;-78
2023/12/24 00:29:12;;;;;;;15.23;5.60;;;9.20;99.90;;;;;;5069321;28;20037;-78
2023/12/24 00:31:37;;;;;;;15.40;5.87;;;9.20;99.90;;;;;;5043904;28;20044;-78
2023/12/24 00:34:03;;;;;;;15.13;5.73;;;9.20;99.90;;;;;;5063837;28;20056;-78
2023/12/24 00:36:29;;;;;;;18.00;5.97;;;9.20;99.90;;;;;;5066422;28;20049;-77
2023/12/24 00:38:54;;;;;;;15.40;5.63;;;9.20;99.90;;;;;;5067602;28;20052;-78
2023/12/24 00:41:20;;;;;;;16.90;5.43;;;9.30;99.90;;;;;;5020791;28;20045;-78
2023/12/24 00:43:46;;;;;;;17.03;5.60;;;9.20;99.90;;;;;;5052495;28;20038;-78
2023/12/24 00:46:15;;;;;;;15.50;5.37;;;9.20;99.90;;;;;;5058994;28;20052;-77
2023/12/24 00:48:41;;;;;;;14.00;5.33;;;9.20;99.90;;;;;;5049470;28;20048;-79
2023/12/24 00:51:07;;;;;;;18.17;6.10;;;9.20;99.90;;;;;;5068369;28;20037;-79
2023/12/24 00:53:33;;;;;;;14.90;5.80;;;9.20;99.90;;;;;;5048987;28;20045;-79
2023/12/24 00:55:59;;;;;;;15.57;5.87;;;9.20;99.90;;;;;;5062466;28;20040;-77
2023/12/24 00:58:26;;;;;;;13.90;5.67;;;9.20;99.90;;;;;;5059185;28;20033;-78
2023/12/24 01:00:52;;;;;;;15.90;5.87;;;9.20;99.90;;;;;;5053388;28;20152;-78
2023/12/24 01:03:18;;;;;;;16.70;5.90;;;9.20;99.90;;;;;;5062623;28;20083;-78
2023/12/24 01:05:43;;;;;;;16.77;5.93;;;9.20;99.90;;;;;;5072213;28;20101;-78
2023/12/24 01:08:09;;;;;;;18.77;5.90;;;9.20;99.90;;;;;;5049555;28;20044;-79
2023/12/24 01:10:35;;;;;;;18.03;5.67;;;9.20;99.90;;;;;;5065183;28;20056;-78
2023/12/24 01:13:00;;;;;;;13.40;5.53;;;9.20;99.90;;;;;;5050104;28;20131;-79
2023/12/24 01:15:26;;;;;;;11.60;5.00;;;9.20;99.90;;;;;;5054887;28;20136;-78
2023/12/24 01:17:52;;;;;;;14.63;5.40;;;9.20;99.90;;;;;;5046238;28;20088;-78
2023/12/24 01:20:21;;;;;;;14.53;6.00;;;9.20;99.90;;;;;;5067553;28;20051;-78
2023/12/24 01:22:46;;;;;;;14.70;5.50;;;9.20;99.90;;;;;;5044573;28;20045;-77
2023/12/24 01:25:13;;;;;;;17.40;5.60;;;9.20;99.90;;;;;;5064051;28;20055;-78
2023/12/24 01:27:39;;;;;;;15.97;5.50;;;9.20;99.90;;;;;;5070556;28;20090;-78
2023/12/24 01:30:05;;;;;;;11.60;4.80;;;9.20;99.90;;;;;;5056316;28;20048;-79
2023/12/24 01:32:31;;;;;;;18.37;5.50;;;9.20;99.90;;;;;;5055809;28;20052;-78
2023/12/24 01:34:58;;;;;;;11.57;4.83;;;9.20;99.90;;;;;;5038158;28;20040;-78
2023/12/24 01:37:24;;;;;;;9.73;4.90;;;9.20;99.90;;;;;;5057188;28;20036;-78
2023/12/24 01:39:49;;;;;;;9.20;4.30;;;9.20;99.90;;;;;;5064766;28;20060;-78
2023/12/24 01:42:15;;;;;;;12.57;4.90;;;9.20;99.90;;;;;;5074239;28;20037;-78
2023/12/24 01:44:41;;;;;;;8.57;4.43;;;9.30;99.90;;;;;;5068367;28;20058;-78
2023/12/24 01:47:07;;;;;;;11.70;3.90;;;9.20;99.90;;;;;;5058869;28;20101;-78
2023/12/24 01:49:33;;;;;;;16.77;4.73;;;9.20;99.90;;;;;;5061547;28;20080;-80
2023/12/24 01:51:59;;;;;;;11.33;3.90;;;9.20;99.90;;;;;;5074166;28;20052;-79
2023/12/24 01:54:26;;;;;;;13.37;3.90;;;9.20;99.90;;;;;;5063607;28;20055;-80
2023/12/24 01:56:52;;;;;;;11.30;3.90;;;9.30;99.90;;;;;;5051301;28;20049;-80
2023/12/24 01:59:19;;;;;;;12.63;3.90;;;9.30;99.90;;;;;;5067005;28;20059;-80
2023/12/24 02:01:46;;;;;;;7.30;3.33;;;9.20;99.90;;;;;;5073888;28;20044;-76
2023/12/24 02:04:12;;;;;;;9.10;3.10;;;9.20;99.90;;;;;;5078969;28;20463;-79
2023/12/24 02:06:39;;;;;;;7.70;3.07;;;9.20;99.90;;;;;;5065662;28;20041;-79
2023/12/24 02:09:05;;;;;;;8.30;3.07;;;9.30;99.90;;;;;;5069104;28;20058;-79
2023/12/24 02:11:31;;;;;;;8.73;3.23;;;9.30;99.90;;;;;;5041101;28;20061;-79
2023/12/24 02:13:57;;;;;;;5.70;2.80;;;9.30;99.90;;;;;;5066014;28;20060;-80
2023/12/24 02:16:24;;;;;;;9.37;2.83;;;9.30;99.90;;;;;;5067993;28;20048;-80
2023/12/24 02:18:50;;;;;;;9.27;2.60;;;9.30;99.90;;;;;;5062528;28;20053;-81
2023/12/24 02:21:16;;;;;;;6.50;2.83;;;9.20;99.90;;;;;;5063534;28;20076;-81
2023/12/24 02:23:42;;;;;;;7.03;2.87;;;9.30;99.90;;;;;;5052494;28;20052;-80
2023/12/24 02:26:32;;;;;;;8.37;2.57;;;9.30;99.90;;;;;;5068306;28;20040;-80
2023/12/24 02:29:16;;;;;;;6.13;2.43;;;9.30;99.90;;;;;;5050454;28;20091;-80
2023/12/24 02:31:45;;;;;;;6.23;2.30;;;9.30;99.90;;;;;;5064337;28;20064;-80
2023/12/24 02:34:16;;;;;;;6.33;2.87;;;9.30;99.90;;;;;;5064586;28;20076;-79
2023/12/24 02:36:45;;;;;;;4.90;2.80;;;9.30;99.90;;;;;;5070641;28;20041;-80
2023/12/24 02:39:11;;;;;;;5.97;2.80;;;9.30;99.90;;;;;;5065760;28;20056;-79
2023/12/24 02:41:37;;;;;;;6.20;3.07;;;9.30;99.90;;;;;;5058911;28;20053;-79
2023/12/24 02:44:03;;;;;;;4.93;3.30;;;9.30;99.90;;;;;;5062751;28;20045;-80
2023/12/24 02:46:29;;;;;;;10.87;3.97;;;9.30;99.90;;;;;;5060903;28;20101;-80
2023/12/24 02:48:54;;;;;;;8.80;3.37;;;9.40;99.90;;;;;;5050107;28;20504;-80
2023/12/24 02:51:21;;;;;;;9.67;3.63;;;9.30;99.90;;;;;;5058224;28;20040;-79
2023/12/24 02:53:46;;;;;;;7.93;3.13;;;9.30;99.90;;;;;;5049210;28;20579;-79
2023/12/24 02:56:12;;;;;;;8.30;3.50;;;9.40;99.90;;;;;;5065499;28;20044;-79
2023/12/24 02:58:37;;;;;;;6.97;3.03;;;9.40;99.90;;;;;;5040851;28;20118;-78
2023/12/24 03:01:03;;;;;;;6.60;3.00;;;9.40;99.90;;;;;;5049921;28;20114;-79
2023/12/24 03:03:29;;;;;;;7.43;2.70;;;9.40;99.90;;;;;;5070459;28;20059;-79
2023/12/24 03:05:54;;;;;;;6.00;2.70;;;9.40;99.90;;;;;;5039110;28;20078;-79
2023/12/24 03:08:21;;;;;;;6.23;2.20;;;9.40;99.90;;;;;;5049039;28;20063;-79
2023/12/24 03:10:47;;;;;;;5.10;2.13;;;9.40;99.90;;;;;;5062665;28;20495;-79
2023/12/24 03:13:13;;;;;;;5.47;2.27;;;9.40;99.90;;;;;;5063241;28;20060;-78
2023/12/24 03:15:38;;;;;;;3.97;2.20;;;9.40;99.90;;;;;;5053631;28;20075;-79
2023/12/24 03:18:04;;;;;;;3.43;2.07;;;9.40;99.90;;;;;;5071050;28;20319;-79
2023/12/24 03:20:30;;;;;;;3.07;1.90;;;9.40;99.90;;;;;;5069341;28;20075;-79
2023/12/24 03:22:55;;;;;;;4.53;1.90;;;9.40;99.90;;;;;;5069008;28;20044;-79
2023/12/24 03:25:21;;;;;;;4.20;1.90;;;9.40;99.90;;;;;;5054217;28;20057;-79
2023/12/24 03:27:47;;;;;;;2.50;1.77;;;9.40;99.90;;;;;;5054609;28;20073;-79
2023/12/24 03:30:13;;;;;;;3.80;2.00;;;9.40;99.90;;;;;;5067411;28;20053;-78
2023/12/24 03:32:38;;;;;;;3.57;1.80;;;9.40;99.90;;;;;;5070124;28;20131;-80
2023/12/24 03:35:04;;;;;;;3.33;1.67;;;9.40;99.90;;;;;;5058827;28;20122;-79
2023/12/24 03:37:30;;;;;;;3.53;1.83;;;9.40;99.90;;;;;;5060912;28;20048;-78
2023/12/24 03:39:56;;;;;;;3.83;1.90;;;9.50;99.90;;;;;;5076690;28;20052;-77
2023/12/24 03:42:21;;;;;;;4.43;1.70;;;9.50;99.90;;;;;;5063710;28;20056;-79
2023/12/24 03:44:47;;;;;;;3.53;1.80;;;9.50;99.90;;;;;;5072236;28;20048;-79
2023/12/24 03:47:13;;;;;;;3.53;2.00;;;9.40;99.90;;;;;;5063925;28;20040;-77
2023/12/24 03:49:38;;;;;;;4.40;1.90;;;9.50;99.90;;;;;;5063061;28;20041;-77
2023/12/24 03:52:05;;;;;;;5.33;1.87;;;9.50;99.90;;;;;;5058349;28;20489;-77
2023/12/24 03:54:30;;;;;;;4.43;2.00;;;9.50;99.90;;;;;;5060530;28;20148;-77
2023/12/24 03:56:56;;;;;;;5.37;1.90;;;9.50;99.90;;;;;;5071518;28;20157;-77
2023/12/24 03:59:22;;;;;;;4.17;2.00;;;9.50;99.90;;;;;;5063784;28;20033;-77
2023/12/24 04:01:47;;;;;;;3.47;2.13;;;9.50;99.90;;;;;;5065442;28;20049;-77
2023/12/24 04:04:13;;;;;;;3.17;1.93;;;9.50;99.90;;;;;;5055107;28;20037;-77
2023/12/24 04:06:39;;;;;;;3.73;2.00;;;9.50;99.90;;;;;;5055846;28;20048;-78
2023/12/24 04:09:04;;;;;;;3.87;1.80;;;9.50;99.90;;;;;;5048594;28;20657;-78
2023/12/24 04:11:30;;;;;;;3.50;2.33;;;9.50;99.90;;;;;;5067079;28;20086;-77
2023/12/24 04:13:57;;;;;;;4.60;1.90;;;9.50;99.90;;;;;;5069718;28;20056;-77
2023/12/24 04:16:23;;;;;;;3.30;1.90;;;9.50;99.90;;;;;;5051793;28;20056;-78
2023/12/24 04:18:49;;;;;;;5.87;1.80;;;9.50;99.90;;;;;;5065213;28;20131;-77
2023/12/24 04:21:16;;;;;;;2.67;1.50;;;9.60;99.90;;;;;;5074060;28;20036;-79
2023/12/24 04:23:41;;;;;;;2.37;1.43;;;9.60;99.90;;;;;;5063865;28;20052;-78
2023/12/24 04:26:07;;;;;;;3.60;1.50;;;9.60;99.90;;;;;;5054767;28;20052;-78
2023/12/24 04:28:33;;;;;;;3.53;1.70;;;9.60;99.90;;;;;;5062398;28;20052;-79
2023/12/24 04:30:58;;;;;;;1.97;1.30;;;9.50;99.90;;;;;;5071535;28;20116;-79
2023/12/24 04:33:24;;;;;;;4.83;1.70;;;9.50;99.90;;;;;;5066860;28;20032;-77
2023/12/24 04:35:50;;;;;;;2.20;1.43;;;9.60;99.90;;;;;;5062654;28;20041;-79
2023/12/24 04:38:15;;;;;;;2.57;1.30;;;9.60;99.90;;;;;;5065628;28;20041;-79
2023/12/24 04:40:41;;;;;;;2.70;1.40;;;9.50;99.90;;;;;;5061719;28;20048;-78
2023/12/24 04:43:07;;;;;;;3.23;1.30;;;9.50;99.90;;;;;;5067459;28;20091;-78
2023/12/24 04:45:32;;;;;;;1.97;1.37;;;9.60;99.90;;;;;;5053448;28;20040;-78
2023/12/24 04:47:59;;;;;;;2.40;1.57;;;9.50;99.90;;;;;;5059423;28;20080;-80
2023/12/24 04:50:25;;;;;;;1.80;1.33;;;9.60;99.90;;;;;;5060875;28;20043;-79
2023/12/24 04:52:50;;;;;;;1.87;1.40;;;9.60;99.90;;;;;;5067298;28;20123;-78
2023/12/24 04:55:16;;;;;;;1.43;1.17;;;9.60;99.90;;;;;;5065885;28;20075;-77
2023/12/24 04:57:42;;;;;;;2.13;1.30;;;9.60;99.90;;;;;;5065258;28;20037;-76
2023/12/24 05:00:08;;;;;;;2.67;1.33;;;9.60;99.90;;;;;;5057604;28;20041;-77
2023/12/24 05:02:34;;;;;;;1.47;1.37;;;9.60;99.90;;;;;;5062657;28;20066;-79
2023/12/24 05:05:03;;;;;;;2.33;1.30;;;9.70;99.90;;;;;;5054767;28;20037;-78
2023/12/24 05:07:29;;;;;;;2.00;1.50;;;9.70;99.90;;;;;;5043530;28;20045;-78
2023/12/24 05:09:55;;;;;;;1.93;1.67;;;9.70;99.90;;;;;;5065202;28;20119;-79
2023/12/24 05:12:21;;;;;;;2.80;2.07;;;9.70;99.90;;;;;;5063935;28;20080;-78
2023/12/24 05:14:47;;;;;;;2.20;1.73;;;9.70;99.90;;;;;;5066237;28;20423;-77
2023/12/24 05:17:12;;;;;;;2.07;1.83;;;9.70;99.90;;;;;;5060238;28;20037;-78
2023/12/24 05:19:38;;;;;;;2.77;2.10;;;9.70;99.90;;;;;;5063398;28;20040;-78
2023/12/24 05:22:04;;;;;;;4.27;1.80;;;9.70;99.90;;;;;;5067438;28;20068;-79
2023/12/24 05:24:29;;;;;;;2.83;2.57;;;9.70;99.90;;;;;;5066841;28;20106;-78
2023/12/24 05:26:55;;;;;;;2.90;2.33;;;9.80;99.90;;;;;;5058829;28;20053;-78
2023/12/24 05:29:21;;;;;;;2.73;2.00;;;9.80;99.90;;;;;;5064486;28;20113;-78
2023/12/24 05:31:46;;;;;;;2.70;2.50;;;9.80;99.90;;;;;;5065631;28;20053;-78
2023/12/24 05:34:12;;;;;;;3.07;2.70;;;9.80;99.90;;;;;;5065607;28;20467;-78
2023/12/24 05:36:39;;;;;;;3.37;2.40;;;9.80;99.90;;;;;;5068812;28;20116;-78
2023/12/24 05:39:11;;;;;;;3.60;2.70;;;9.80;99.90;;;;;;5064662;28;20574;-79
2023/12/24 05:41:37;;;;;;;2.67;2.42;;;9.80;99.90;;;;;;5074787;28;20114;-79
2023/12/24 05:44:02;;;;;;;2.80;2.57;;;9.80;99.90;;;;;;5064020;28;20036;-79
2023/12/24 05:46:28;;;;;;;3.60;2.60;;;9.80;99.90;;;;;;5061513;28;20036;-76
2023/12/24 05:48:54;;;;;;;3.60;2.77;;;9.90;99.90;;;;;;5043697;28;20075;-78
2023/12/24 05:51:19;;;;;;;2.90;2.50;;;9.90;99.90;;;;;;5067822;28;20107;-79
2023/12/24 05:53:45;;;;;;;4.53;2.50;;;9.90;99.90;;;;;;5063273;28;20048;-79
2023/12/24 05:56:11;;;;;;;3.23;2.70;;;9.90;99.90;;;;;;5059020;28;20032;-81
2023/12/24 05:58:36;;;;;;;4.27;2.53;;;9.90;99.90;;;;;;5057153;28;20052;-79
2023/12/24 06:01:02;;;;;;;4.27;3.00;;;9.90;99.90;;;;;;5050268;28;20048;-79
2023/12/24 06:03:28;;;;;;;4.70;3.00;;;9.90;99.90;;;;;;5060250;28;20053;-78
2023/12/24 06:05:53;;;;;;;4.17;3.30;;;9.90;99.90;;;;;;5045543;28;20045;-79
2023/12/24 06:08:19;;;;;;;4.17;3.43;;;9.90;99.90;;;;;;5067551;28;20045;-79
2023/12/24 06:10:45;;;;;;;4.40;3.40;;;9.90;99.90;;;;;;5069809;28;20077;-78
2023/12/24 06:13:11;;;;;;;3.80;3.40;;;9.90;99.90;;;;;;5064665;28;20059;-78
2023/12/24 06:15:38;;;;;;;4.10;3.60;;;10.00;99.90;;;;;;5050022;28;20052;-79
2023/12/24 06:18:08;;;;;;;4.40;3.60;;;10.00;99.90;;;;;;5049980;28;20071;-80
2023/12/24 06:20:35;;;;;;;6.03;3.73;;;10.00;99.90;;;;;;5057435;28;20075;-79
2023/12/24 06:23:02;;;;;;;4.97;4.17;;;10.00;99.90;;;;;;5038572;28;20044;-79
2023/12/24 06:25:28;;;;;;;6.47;4.33;;;10.00;99.90;;;;;;5041163;28;20059;-79
2023/12/24 06:27:53;;;;;;;6.37;3.90;;;10.10;99.90;;;;;;5060198;28;20735;-78
2023/12/24 06:30:20;;;;;;;5.53;4.30;;;10.10;99.90;;;;;;5060491;28;20531;-79
2023/12/24 06:32:46;;;;;;;5.93;4.80;;;10.10;99.90;;;;;;5062780;28;20049;-80
2023/12/24 06:35:13;;;;;;;8.00;5.10;;;10.10;99.90;;;;;;5059970;28;20068;-79
2023/12/24 06:37:39;;;;;;;9.47;5.00;;;10.10;99.90;;;;;;5058397;28;20057;-79
2023/12/24 06:40:05;;;;;;;7.63;5.00;;;10.10;99.90;;;;;;5054340;28;20075;-78
2023/12/24 06:42:31;;;;;;;9.07;5.30;;;10.20;99.90;;;;;;5056231;28;20498;-79
2023/12/24 06:44:57;;;;;;;10.73;5.23;;;10.10;99.90;;;;;;5060246;28;20084;-79
2023/12/24 06:47:23;;;;;;;9.33;5.20;;;10.20;99.90;;;;;;5042205;28;20048;-78
2023/12/24 06:49:48;;;;;;;12.30;5.27;;;10.10;99.90;;;;;;5059142;28;20087;-79
2023/12/24 06:52:14;;;;;;;11.27;5.60;;;10.20;99.90;;;;;;5061014;28;20048;-79
2023/12/24 06:54:40;;;;;;;8.77;5.40;;;10.20;99.90;;;;;;5021236;28;20105;-79
2023/12/24 06:57:07;;;;;;;12.37;5.60;;;10.20;99.90;;;;;;5059086;28;20041;-79
2023/12/24 06:59:33;;;;;;;15.90;6.10;;;10.20;99.90;;;;;;5022312;28;20053;-78
2023/12/24 07:01:59;;;;;;;14.53;7.27;;;10.20;99.90;;;;;;5037052;28;20075;-78
2023/12/24 07:04:24;;;;;;;17.73;7.00;;;10.30;99.90;;;;;;5058975;28;20064;-79
2023/12/24 07:06:50;;;;;;;15.60;7.30;;;10.30;99.90;;;;;;5060730;28;20265;-80
2023/12/24 07:09:16;;;;;;;16.13;7.40;;;10.40;99.90;;;;;;5055268;28;20041;-79
2023/12/24 07:11:41;;;;;;;12.43;7.20;;;10.30;99.90;;;;;;5057616;28;20049;-79
2023/12/24 07:14:07;;;;;;;19.87;7.13;;;10.30;99.90;;;;;;5055492;28;20700;-78
2023/12/24 07:16:33;;;;;;;15.73;7.20;;;10.30;99.90;;;;;;5065919;28;20052;-81
2023/12/24 07:19:02;;;;;;;17.07;7.70;;;10.40;99.90;;;;;;5058241;28;20130;-80
2023/12/24 07:21:28;;;;;;;15.33;6.97;;;10.40;99.90;;;;;;5074374;28;20040;-80
2023/12/24 07:23:53;;;;;;;15.40;7.20;;;10.40;99.90;;;;;;5051537;28;20303;-80
2023/12/24 07:26:20;;;;;;;16.33;7.87;;;10.40;99.90;;;;;;5062658;28;20041;-80
2023/12/24 07:28:47;;;;;;;19.27;7.93;;;10.40;99.90;;;;;;5072905;28;20100;-81
2023/12/24 07:31:15;;;;;;;19.60;8.20;;;10.40;99.90;;;;;;5068410;28;20040;-79
2023/12/24 07:33:41;;;;;;;16.57;7.83;;;10.50;99.90;;;;;;5056241;28;20040;-79
2023/12/24 07:36:07;;;;;;;16.67;7.15;;;10.50;99.90;;;;;;5062284;28;20149;-80
2023/12/24 07:38:34;;;;;;;16.47;6.80;;;10.50;99.90;;;;;;5032219;28;20134;-81
2023/12/24 07:41:00;;;;;;;16.10;7.77;;;10.50;99.90;;;;;;5051135;28;20057;-80
2023/12/24 07:43:27;;;;;;;23.13;7.60;;;10.50;99.90;;;;;;5047662;28;20128;-77
2023/12/24 07:45:53;;;;;;;15.47;6.30;;;10.50;99.90;;;;;;5064805;28;20081;-80
2023/12/24 07:48:19;;;;;;;19.87;7.50;;;10.50;99.90;;;;;;5030312;28;20041;-78
2023/12/24 07:50:44;;;;;;;23.07;7.50;;;10.60;99.90;;;;;;5048700;28;20040;-78
2023/12/24 07:53:10;;;;;;;12.53;7.00;;;10.60;99.90;;;;;;5047166;28;20051;-78
2023/12/24 07:55:36;;;;;;;17.70;7.60;;;10.50;99.90;;;;;;5059500;28;20059;-78
2023/12/24 07:58:02;;;;;;;14.93;7.23;;;10.60;99.90;;;;;;5054572;28;20048;-78
2023/12/24 08:00:27;;;;;;;19.30;7.83;;;10.60;99.90;;;;;;5067839;28;20049;-77
2023/12/24 08:02:53;;;;;;;14.77;7.63;;;10.60;99.90;;;;;;5053040;28;20036;-78
2023/12/24 08:05:19;;;;;;;15.48;8.00;;;10.60;99.90;;;;;;5035832;28;20053;-78
2023/12/24 08:07:45;;;;;;;17.10;8.20;;;10.60;99.90;;;;;;5045674;28;20328;-79
2023/12/24 08:10:10;;;;;;;18.13;8.23;;;10.60;99.90;;;;;;5040962;28;20048;-78
2023/12/24 08:12:37;;;;;;;17.07;8.63;;;10.70;99.90;;;;;;5044176;28;20091;-77
2023/12/24 08:15:04;;;;;;;21.92;9.15;;;10.70;99.90;;;;;;5050232;28;20037;-78
2023/12/24 08:17:30;;;;;;;18.03;8.27;;;10.70;99.90;;;;;;5011073;28;20740;-78
2023/12/24 08:19:56;;;;;;;23.55;8.30;;;10.70;99.90;;;;;;5042572;28;20045;-78
2023/12/24 08:22:22;;;;;;;18.48;8.45;;;10.70;99.90;;;;;;5047205;28;20037;-78
2023/12/24 08:24:48;;;;;;;18.93;8.10;;;10.70;99.90;;;;;;5042972;28;20427;-78
2023/12/24 08:27:13;;;;;;;16.45;8.88;;;10.70;99.90;;;;;;5048516;28;20045;-80
2023/12/24 08:29:39;;;;;;;15.33;8.43;;;10.70;99.90;;;;;;4990171;28;20056;-77
2023/12/24 08:32:05;;;;;;;22.35;9.63;;;10.80;99.90;;;;;;5034725;28;20061;-74
2023/12/24 08:34:32;;;;;;;19.77;9.43;;;10.70;99.90;;;;;;5047163;28;20049;-78
2023/12/24 08:36:58;;;;;;;20.45;9.57;;;10.80;99.90;;;;;;5019901;28;20053;-79
2023/12/24 08:39:24;;;;;;;23.80;9.23;;;10.80;99.90;;;;;;5037171;28;20080;-80
2023/12/24 08:41:49;;;;;;;23.93;9.07;;;10.80;99.90;;;;;;5053786;28;20055;-89
2023/12/24 08:44:16;;;;;;;23.10;9.40;;;10.80;99.90;;;;;;5040388;28;20045;-79
2023/12/24 08:46:45;;;;;;;19.33;8.80;;;10.80;99.90;;;;;;5043133;28;20059;-77
2023/12/24 08:49:11;;;;;;;18.03;8.00;;;10.80;99.90;;;;;;5049874;28;20079;-78
2023/12/24 08:51:37;;;;;;;25.20;9.40;;;10.70;99.90;;;;;;5041373;28;20040;-78
2023/12/24 08:54:03;;;;;;;19.23;8.47;;;10.80;99.90;;;;;;5033819;28;20049;-77
2023/12/24 08:56:33;;;;;;;18.03;7.97;;;10.80;99.90;;;;;;5026996;28;20611;-77
2023/12/24 08:58:59;;;;;;;22.83;8.45;;;10.80;99.90;;;;;;5020083;28;20061;-76
2023/12/24 09:01:24;;;;;;;18.60;8.07;;;10.80;99.90;;;;;;5046939;28;20045;-77
2023/12/24 09:03:50;;;;;;;23.80;8.73;;;10.80;99.90;;;;;;5022576;28;20412;-75
2023/12/24 09:06:16;;;;;;;22.30;9.25;;;10.80;99.90;;;;;;5045582;28;20079;-76
2023/12/24 09:08:41;;;;;;;23.08;8.32;;;10.80;99.90;;;;;;5043001;28;20200;-76
2023/12/24 09:11:07;;;;;;;20.65;7.70;;;10.80;99.90;;;;;;5030745;28;20071;-76
2023/12/24 09:13:33;;;;;;;20.60;7.75;;;10.90;99.90;;;;;;5040181;28;20072;-76
2023/12/24 09:15:58;;;;;;;19.70;8.18;;;10.80;99.90;;;;;;5026511;28;20053;-77
2023/12/24 09:18:24;;;;;;;23.05;8.38;;;10.80;99.90;;;;;;5045994;28;20083;-77
2023/12/24 09:20:51;;;;;;;21.05;7.38;;;10.80;99.90;;;;;;5035203;28;20418;-76
2023/12/24 09:23:17;;;;;;;23.17;7.50;;;10.80;99.90;;;;;;5031422;28;20132;-77
2023/12/24 09:25:43;;;;;;;19.30;7.40;;;10.80;99.90;;;;;;5038688;28;20041;-77
2023/12/24 09:28:08;;;;;;;16.37;7.03;;;10.90;99.90;;;;;;5019192;28;20049;-77
2023/12/24 09:30:34;;;;;;;22.83;6.47;;;10.90;99.90;;;;;;5049188;28;20037;-76
2023/12/24 09:33:00;;;;;;;14.90;6.60;;;10.90;99.90;;;;;;5024804;28;20750;-77
2023/12/24 09:35:27;;;;;;;19.02;5.93;;;10.90;99.90;;;;;;5025479;28;20095;-76
2023/12/24 09:37:53;;;;;;;16.90;5.70;;;10.90;99.90;;;;;;5027453;28;20057;-76
2023/12/24 09:40:18;;;;;;;11.30;5.68;;;11.00;99.90;;;;;;5047628;28;20048;-76
2023/12/24 09:42:44;;;;;;;10.73;5.45;;;11.00;99.90;;;;;;5050320;28;20053;-77
2023/12/24 09:45:10;;;;;;;14.07;5.88;;;11.00;99.90;;;;;;5036656;28;20156;-76
2023/12/24 09:47:36;;;;;;;17.08;5.70;;;11.00;99.90;;;;;;4982128;28;20065;-76
2023/12/24 09:50:03;;;;;;;18.08;7.15;;;11.00;99.90;;;;;;5037321;28;20076;-76
2023/12/24 09:52:29;;;;;;;14.88;6.95;;;11.00;99.90;;;;;;5037227;28;20045;-76
2023/12/24 09:54:55;;;;;;;17.10;7.03;;;11.10;99.90;;;;;;5033176;28;20507;-77
2023/12/24 09:57:21;;;;;;;20.05;7.15;;;11.10;99.90;;;;;;5035297;28;20029;-77
2023/12/24 09:59:47;;;;;;;18.60;7.03;;;11.10;99.90;;;;;;5045991;28;20103;-77
2023/12/24 10:02:13;;;;;;;14.98;6.90;;;11.10;99.90;;;;;;5046478;28;20060;-76
2023/12/24 10:04:39;;;;;;;17.38;7.55;;;11.10;99.90;;;;;;5050271;28;20037;-77
2023/12/24 10:07:06;;;;;;;16.25;6.60;;;11.20;99.90;;;;;;5036608;28;20049;-76
2023/12/24 10:09:47;;;;;;;19.52;7.40;;;11.20;99.90;;;;;;5042392;28;20068;-76
2023/12/24 10:12:12;;;;;;;15.07;6.72;;;11.30;99.90;;;;;;5024368;28;20157;-77
2023/12/24 10:14:39;;;;;;;17.70;7.15;;;11.30;99.90;;;;;;5039765;28;20081;-78
2023/12/24 10:17:06;;;;;;;20.00;6.07;;;11.30;99.90;;;;;;5046602;28;20049;-78
2023/12/24 10:19:32;;;;;;;19.35;6.68;;;11.30;99.90;;;;;;5053715;28;20041;-79
2023/12/24 10:22:03;;;;;;;17.17;5.85;;;11.40;99.90;;;;;;5036804;28;20041;-78
2023/12/24 10:24:32;;;;;;;16.77;7.13;;;11.40;99.90;;;;;;5038005;28;20118;-79
2023/12/24 10:27:06;;;;;;;11.05;6.35;;;11.30;99.90;;;;;;5037839;28;20356;-79
2023/12/24 10:29:35;;;;;;;13.77;5.90;;;11.40;99.90;;;;;;5038568;28;20446;-79
2023/12/24 10:32:02;;;;;;;15.40;6.07;;;11.40;99.90;;;;;;5034501;28;20140;-79
2023/12/24 10:34:29;;;;;;;14.45;5.80;;;11.40;99.90;;;;;;5042722;28;20038;-79
2023/12/24 10:36:55;;;;;;;13.02;5.93;;;11.40;99.90;;;;;;5052558;28;20061;-78
2023/12/24 10:39:24;;;;;;;15.32;5.78;;;11.40;99.90;;;;;;5050548;28;20056;-79
2023/12/24 10:41:54;;;;;;;13.27;5.30;;;11.40;99.90;;;;;;5047748;28;20109;-79
2023/12/24 10:44:21;;;;;;;16.23;5.47;;;11.50;99.90;;;;;;5030534;28;20038;-78
2023/12/24 10:46:47;;;;;;;17.88;5.45;;;11.50;99.90;;;;;;5044817;28;20042;-78
2023/12/24 10:49:13;;;;;;;15.15;4.95;;;11.50;99.90;;;;;;5043939;28;20044;-76
2023/12/24 10:51:39;;;;;;;9.60;5.38;;;11.50;99.90;;;;;;5039971;28;20251;-78
2023/12/24 10:54:07;;;;;;;11.32;4.63;;;11.50;99.90;;;;;;5039453;28;20057;-78
2023/12/24 10:57:19;;;;;;;11.07;4.97;;;11.60;99.90;;;;;;5035248;28;20048;-77
2023/12/24 11:00:12;;;;;;;10.73;4.28;;;11.60;99.90;;;;;;5006512;28;20113;-78
2023/12/24 11:02:43;;;;;;;10.85;4.53;;;11.60;99.90;;;;;;5047375;28;20113;-78
2023/12/24 11:05:09;;;;;;;12.57;4.20;;;11.60;99.90;;;;;;5045566;28;20622;-78
2023/12/24 11:07:34;;;;;;;13.57;4.22;;;11.60;99.90;;;;;;5048863;28;20045;-77
2023/12/24 11:10:02;;;;;;;11.02;4.25;;;11.60;99.90;;;;;;5045450;28;20049;-78
2023/12/24 11:12:39;;;;;;;12.48;4.10;;;11.60;99.90;;;;;;5017408;28;20053;-78
2023/12/24 11:15:08;;;;;;;13.82;3.90;;;11.70;99.90;;;;;;5045395;28;20068;-76
2023/12/24 11:17:33;;;;;;;15.45;3.97;;;11.80;99.90;;;;;;5058854;28;20036;-77
2023/12/24 11:20:20;;;;;;;15.05;3.83;;;11.70;99.90;;;;;;5046590;28;20053;-79
2023/12/24 11:23:04;;;;;;;12.52;3.90;;;11.80;99.90;;;;;;5036768;28;20049;-78
2023/12/24 11:25:36;;;;;;;9.68;3.63;;;11.80;99.90;;;;;;5035925;28;20040;-78
2023/12/24 11:28:03;;;;;;;16.83;4.15;;;11.80;99.90;;;;;;5019150;28;20049;-77
2023/12/24 11:30:29;;;;;;;18.50;5.10;;;11.90;99.90;;;;;;5020370;28;20393;-77
2023/12/24 11:32:55;;;;;;;11.38;4.07;;;11.90;99.90;;;;;;5046343;28;20049;-78
2023/12/24 11:35:53;;;;;;;15.02;4.60;;;11.90;99.90;;;;;;5031266;28;20096;-78
2023/12/24 11:38:34;;;;;;;14.18;4.78;;;11.90;99.90;;;;;;5050043;28;20049;-78
2023/12/24 11:41:14;;;;;;;12.65;4.35;;;11.80;99.90;;;;;;5050965;28;20042;-77
2023/12/24 11:43:41;;;;;;;11.30;4.57;;;11.80;99.90;;;;;;5039727;28;20077;-76
2023/12/24 11:46:09;;;;;;;11.18;4.13;;;11.90;99.90;;;;;;5039880;28;20056;-76
2023/12/24 11:48:35;;;;;;;14.50;4.35;;;11.80;99.90;;;;;;5040669;28;20073;-76
2023/12/24 11:51:05;;;;;;;11.55;4.35;;;11.80;99.90;;;;;;5032469;28;20048;-78
2023/12/24 11:53:34;;;;;;;12.02;4.00;;;11.80;99.90;;;;;;5043762;28;20049;-79
2023/12/24 11:56:11;;;;;;;13.60;4.10;;;11.90;99.90;;;;;;5027472;28;20037;-79
2023/12/24 11:58:41;;;;;;;11.50;4.13;;;11.90;99.90;;;;;;5035337;28;20138;-79
2023/12/24 12:01:09;;;;;;;13.07;4.22;;;11.90;99.90;;;;;;5049668;28;20045;-79
2023/12/24 12:03:36;;;;;;;12.13;4.13;;;11.90;99.90;;;;;;5046039;28;20049;-80
2023/12/24 12:06:03;;;;;;;12.15;3.80;;;11.90;99.90;;;;;;5024067;28;20072;-79
2023/12/24 12:08:30;;;;;;;11.65;3.75;;;11.90;99.90;;;;;;5018171;28;20072;-80
2023/12/24 12:10:59;;;;;;;15.32;4.20;;;11.90;99.90;;;;;;5034063;28;20041;-79
2023/12/24 12:13:25;;;;;;;10.48;4.13;;;11.90;99.90;;;;;;5031607;28;20045;-80
2023/12/24 12:15:51;;;;;;;14.63;4.45;;;11.90;99.90;;;;;;5022693;28;20065;-80
2023/12/24 12:18:17;;;;;;;11.82;4.05;;;11.90;99.90;;;;;;5032829;28;20052;-78
2023/12/24 12:20:46;;;;;;;13.13;4.50;;;11.90;99.90;;;;;;5046210;28;20238;-80
2023/12/24 12:23:18;;;;;;;13.13;4.72;;;11.90;99.90;;;;;;5025111;28;20806;-80
2023/12/24 12:25:44;;;;;;;11.85;4.43;;;11.90;99.90;;;;;;5052704;28;20882;-80
2023/12/24 12:28:10;;;;;;;11.05;4.50;;;11.90;99.90;;;;;;5013543;28;20118;-80
2023/12/24 12:30:36;;;;;;;11.73;4.40;;;11.90;99.90;;;;;;5033987;28;20045;-81
2023/12/24 12:33:02;;;;;;;14.73;4.85;;;11.90;99.90;;;;;;5047288;28;20041;-80
2023/12/24 12:35:28;;;;;;;12.20;4.20;;;11.90;99.90;;;;;;5037113;28;20134;-80
2023/12/24 12:37:53;;;;;;;9.70;3.65;;;11.80;99.90;;;;;;5051398;28;20058;-80
2023/12/24 12:40:19;;;;;;;14.18;4.50;;;11.90;99.90;;;;;;5035368;28;20045;-79
2023/12/24 12:42:45;;;;;;;12.63;3.88;;;11.90;99.90;;;;;;5033306;28;20061;-80
2023/12/24 12:45:12;;;;;;;11.38;4.07;;;11.80;99.90;;;;;;5023372;28;20480;-79